createdAt,value
2019-01-10T00:00:51.370Z,1.87
2019-01-10T00:03:20.115Z,1.97
2019-01-10T00:05:49.005Z,2.23
2019-01-10T00:08:17.878Z,2.90
2019-01-10T00:10:46.654Z,1.90
2019-01-10T00:13:15.542Z,2.07
2019-01-10T00:15:44.270Z,2.27
2019-01-10T00:18:13.069Z,1.87
2019-01-10T00:20:41.905Z,1.70
2019-01-10T00:23:10.621Z,1.37
2019-01-10T00:25:39.385Z,1.70
2019-01-10T00:28:08.197Z,2.27
2019-01-10T00:30:37.025Z,1.50
2019-01-10T00:33:05.917Z,2.00
2019-01-10T00:35:34.645Z,2.03
2019-01-10T00:38:03.469Z,2.10
2019-01-10T00:40:32.281Z,2.10
2019-01-10T00:43:01.121Z,2.17
2019-01-10T00:45:29.945Z,2.23
2019-01-10T00:47:58.750Z,1.50
2019-01-10T00:50:27.553Z,2.23
2019-01-10T00:52:56.505Z,1.77
2019-01-10T00:55:25.309Z,1.40
2019-01-10T00:57:54.123Z,1.83
2019-01-10T01:00:24.645Z,2.37
2019-01-10T01:02:53.519Z,1.40
2019-01-10T01:05:22.885Z,2.00
2019-01-10T01:07:52.005Z,1.60
2019-01-10T01:10:23.033Z,1.40
2019-01-10T01:12:58.250Z,2.00
2019-01-10T01:15:22.599Z,1.73
2019-01-10T01:17:51.381Z,2.00
2019-01-10T01:20:22.020Z,1.63
2019-01-10T01:22:50.874Z,2.13
2019-01-10T01:25:19.737Z,2.23
2019-01-10T01:27:48.561Z,1.90
2019-01-10T01:30:19.286Z,1.70
2019-01-10T01:32:48.077Z,1.80
2019-01-10T01:35:17.249Z,1.63
2019-01-10T01:37:46.317Z,2.03
2019-01-10T01:40:17.210Z,1.60
2019-01-10T01:42:46.209Z,1.93
2019-01-10T01:45:16.429Z,1.70
2019-01-10T01:47:45.321Z,1.50
2019-01-10T01:50:19.846Z,1.47
2019-01-10T01:52:49.221Z,1.83
2019-01-10T01:55:17.992Z,1.47
2019-01-10T01:57:46.769Z,1.87
2019-01-10T02:00:18.583Z,1.10
2019-01-10T02:02:47.381Z,1.10
2019-01-10T02:05:16.621Z,1.87
2019-01-10T02:07:45.772Z,1.57
2019-01-10T02:10:20.684Z,1.30
2019-01-10T02:12:49.537Z,2.00
2019-01-10T02:15:18.237Z,1.20
2019-01-10T02:17:49.130Z,1.80
2019-01-10T02:20:17.787Z,1.10
2019-01-10T02:22:46.629Z,1.67
2019-01-10T02:25:15.821Z,1.47
2019-01-10T02:27:44.705Z,1.30
2019-01-10T02:30:22.059Z,1.20
2019-01-10T02:32:50.923Z,1.80
2019-01-10T02:35:19.799Z,1.67
2019-01-10T02:37:48.677Z,1.60
2019-01-10T02:40:17.660Z,1.10
2019-01-10T02:42:46.478Z,1.57
2019-01-10T02:45:16.139Z,1.80
2019-01-10T02:47:44.872Z,1.20
2019-01-10T02:50:16.578Z,1.80
2019-01-10T02:52:45.455Z,1.17
2019-01-10T02:55:14.462Z,1.60
2019-01-10T02:57:43.383Z,1.80
2019-01-10T03:00:15.583Z,1.70
2019-01-10T03:02:44.357Z,1.40
2019-01-10T03:05:13.434Z,1.73
2019-01-10T03:07:42.557Z,1.17
2019-01-10T03:10:13.856Z,2.03
2019-01-10T03:12:42.678Z,1.23
2019-01-10T03:15:11.681Z,1.67
2019-01-10T03:17:41.473Z,1.30
2019-01-10T03:20:12.832Z,1.73
2019-01-10T03:22:49.571Z,2.07
2019-01-10T03:25:17.846Z,1.60
2019-01-10T03:27:46.643Z,2.00
2019-01-10T03:30:17.304Z,1.97
2019-01-10T03:32:46.050Z,1.27
2019-01-10T03:35:15.089Z,1.73
2019-01-10T03:37:43.893Z,1.60
2019-01-10T03:40:16.833Z,1.23
2019-01-10T03:42:45.678Z,1.20
2019-01-10T03:45:16.084Z,1.47
2019-01-10T03:47:44.935Z,1.60
2019-01-10T03:50:14.426Z,1.73
2019-01-10T03:52:43.345Z,1.33
2019-01-10T03:55:12.249Z,1.30
2019-01-10T03:57:41.031Z,1.03
2019-01-10T04:00:16.499Z,1.30
2019-01-10T04:02:45.233Z,1.37
2019-01-10T04:05:17.263Z,1.70
2019-01-10T04:07:46.115Z,1.83
2019-01-10T04:10:15.295Z,1.60
2019-01-10T04:12:44.247Z,1.90
2019-01-10T04:15:13.114Z,1.03
2019-01-10T04:17:41.923Z,1.43
2019-01-10T04:20:11.910Z,1.77
2019-01-10T04:22:44.605Z,1.70
2019-01-10T04:25:14.529Z,1.63
2019-01-10T04:27:43.383Z,1.60
2019-01-10T04:30:29.395Z,1.77
2019-01-10T04:33:00.402Z,1.70
2019-01-10T04:35:29.249Z,1.40
2019-01-10T04:37:57.994Z,1.33
2019-01-10T04:40:26.698Z,1.90
2019-01-10T04:43:00.164Z,1.20
2019-01-10T04:45:29.115Z,1.30
2019-01-10T04:47:57.805Z,1.53
2019-01-10T04:50:26.629Z,1.50
2019-01-10T04:52:55.594Z,1.10
2019-01-10T04:55:24.301Z,1.80
2019-01-10T04:57:55.390Z,2.00
2019-01-10T05:00:31.372Z,1.97
2019-01-10T05:03:00.265Z,2.57
2019-01-10T05:05:30.573Z,1.57
2019-01-10T05:07:59.334Z,1.47
2019-01-10T05:10:28.073Z,1.30
2019-01-10T05:12:56.802Z,1.60
2019-01-10T05:15:25.527Z,1.77
2019-01-10T05:17:54.225Z,2.23
2019-01-10T05:20:23.013Z,1.70
2019-01-10T05:22:51.801Z,1.00
2019-01-10T05:25:20.537Z,2.00
2019-01-10T05:27:49.280Z,2.20
2019-01-10T05:30:20.817Z,1.97
2019-01-10T05:32:53.561Z,3.10
2019-01-10T05:35:22.357Z,1.57
2019-01-10T05:37:51.177Z,1.53
2019-01-10T05:40:19.901Z,1.23
2019-01-10T05:42:48.594Z,1.60
2019-01-10T05:45:17.741Z,1.20
2019-01-10T05:47:46.641Z,1.23
2019-01-10T05:50:17.896Z,1.70
2019-01-10T05:52:46.711Z,1.07
2019-01-10T05:55:20.815Z,1.87
2019-01-10T05:57:50.412Z,1.77
2019-01-10T06:00:28.658Z,1.33
2019-01-10T06:02:58.325Z,1.87
2019-01-10T06:05:27.313Z,1.17
2019-01-10T06:07:56.238Z,1.50
2019-01-10T06:10:27.061Z,1.17
2019-01-10T06:12:56.017Z,1.27
2019-01-10T06:15:24.883Z,1.90
2019-01-10T06:17:53.712Z,1.27
2019-01-10T06:20:23.729Z,1.40
2019-01-10T06:22:52.529Z,1.80
2019-01-10T06:25:21.348Z,1.57
2019-01-10T06:27:50.130Z,2.07
2019-01-10T06:30:21.035Z,1.50
2019-01-10T06:32:49.775Z,3.17
2019-01-10T06:35:18.552Z,1.43
2019-01-10T06:37:47.374Z,1.73
2019-01-10T06:40:18.197Z,1.40
2019-01-10T06:42:46.985Z,1.90
2019-01-10T06:45:16.613Z,1.40
2019-01-10T06:47:45.473Z,2.00
2019-01-10T06:50:15.233Z,2.00
2019-01-10T06:52:44.049Z,1.60
2019-01-10T06:55:12.949Z,2.10
2019-01-10T06:57:41.730Z,1.60
2019-01-10T07:00:13.960Z,1.70
2019-01-10T07:02:42.773Z,1.77
2019-01-10T07:05:11.573Z,1.67
2019-01-10T07:07:40.389Z,1.40
2019-01-10T07:10:16.330Z,1.70
2019-01-10T07:12:45.186Z,3.07
2019-01-10T07:15:14.264Z,1.87
2019-01-10T07:17:43.093Z,2.10
2019-01-10T07:20:12.174Z,2.40
2019-01-10T07:22:45.649Z,2.30
2019-01-10T07:25:14.463Z,2.20
2019-01-10T07:27:43.242Z,2.00
2019-01-10T07:30:16.319Z,2.10
2019-01-10T07:32:45.366Z,1.90
2019-01-10T07:35:16.158Z,1.80
2019-01-10T07:37:50.718Z,2.37
2019-01-10T07:40:19.589Z,2.20
2019-01-10T07:42:48.341Z,1.83
2019-01-10T07:45:22.333Z,1.67
2019-01-10T07:47:51.341Z,2.30
2019-01-10T07:50:36.340Z,2.07
2019-01-10T07:53:09.126Z,1.70
2019-01-10T07:55:38.450Z,1.50
2019-01-10T07:58:07.387Z,1.70
2019-01-10T08:00:36.333Z,1.73
2019-01-10T08:03:05.579Z,1.73
2019-01-10T08:05:34.454Z,1.53
2019-01-10T08:08:03.303Z,1.87
2019-01-10T08:10:32.137Z,1.93
2019-01-10T08:13:02.960Z,1.33
2019-01-10T08:15:31.497Z,2.20
2019-01-10T08:18:00.310Z,2.00
2019-01-10T08:20:29.046Z,2.50
2019-01-10T08:22:57.865Z,1.87
2019-01-10T08:25:26.757Z,1.80
2019-01-10T08:27:55.665Z,1.80
2019-01-10T08:30:25.551Z,1.70
2019-01-10T08:32:54.350Z,2.17
2019-01-10T08:35:25.246Z,1.57
2019-01-10T08:37:54.091Z,1.80
2019-01-10T08:40:23.271Z,1.50
2019-01-10T08:42:52.192Z,2.30
2019-01-10T08:45:22.113Z,1.70
2019-01-10T08:47:51.170Z,1.23
2019-01-10T08:50:22.273Z,2.30
2019-01-10T08:52:51.070Z,2.70
2019-01-10T08:55:19.925Z,1.63
2019-01-10T08:57:48.717Z,2.00
2019-01-10T09:00:19.329Z,1.83
2019-01-10T09:02:48.186Z,2.20
2019-01-10T09:05:17.043Z,1.87
2019-01-10T09:07:45.844Z,1.40
2019-01-10T09:10:26.169Z,1.83
2019-01-10T09:12:55.062Z,1.90
2019-01-10T09:15:33.876Z,1.53
2019-01-10T09:17:54.571Z,2.13
2019-01-10T09:20:23.365Z,1.60
2019-01-10T09:22:52.167Z,2.10
2019-01-10T09:25:23.983Z,5.10
2019-01-10T09:27:52.725Z,12.73
2019-01-10T09:30:22.473Z,4.97
2019-01-10T09:32:51.395Z,3.27
2019-01-10T09:35:20.594Z,2.60
2019-01-10T09:37:49.378Z,1.97
2019-01-10T09:40:19.503Z,2.00
2019-01-10T09:42:48.405Z,1.63
2019-01-10T09:45:19.709Z,1.60
2019-01-10T09:47:48.504Z,1.33
2019-01-10T09:50:18.261Z,1.47
2019-01-10T09:52:47.830Z,1.70
2019-01-10T09:55:16.723Z,2.00
2019-01-10T09:57:45.517Z,1.50
2019-01-10T10:00:23.296Z,1.60
2019-01-10T10:02:52.029Z,1.77
2019-01-10T10:05:21.145Z,1.67
2019-01-10T10:07:49.963Z,1.20
2019-01-10T10:10:19.477Z,1.57
2019-01-10T10:12:48.296Z,1.70
2019-01-10T10:15:17.943Z,2.13
2019-01-10T10:17:46.931Z,1.80
2019-01-10T10:20:18.010Z,2.07
2019-01-10T10:22:46.905Z,2.37
2019-01-10T10:25:15.636Z,1.87
2019-01-10T10:27:44.605Z,1.73
2019-01-10T10:30:16.158Z,1.80
2019-01-10T10:32:44.946Z,1.90
2019-01-10T10:35:14.263Z,1.77
2019-01-10T10:37:43.053Z,1.73
2019-01-10T10:40:14.042Z,1.63
2019-01-10T10:42:42.913Z,2.07
2019-01-10T10:45:13.634Z,2.30
2019-01-10T10:47:42.466Z,2.60
2019-01-10T10:50:14.347Z,2.80
2019-01-10T10:52:43.290Z,4.00
2019-01-10T10:55:12.162Z,3.63
2019-01-10T10:57:41.034Z,2.77
2019-01-10T11:00:13.667Z,3.10
2019-01-10T11:02:42.481Z,2.10
2019-01-10T11:05:11.380Z,2.00
2019-01-10T11:07:40.096Z,2.30
2019-01-10T11:10:10.901Z,2.30
2019-01-10T11:12:39.693Z,2.20
2019-01-10T11:15:09.331Z,2.53
2019-01-10T11:17:38.189Z,2.07
2019-01-10T11:20:10.005Z,2.10
2019-01-10T11:22:38.737Z,1.93
2019-01-10T11:25:11.181Z,2.40
2019-01-10T11:27:39.918Z,2.50
2019-01-10T11:30:10.467Z,1.87
2019-01-10T11:32:39.214Z,2.60
2019-01-10T11:35:08.139Z,3.00
2019-01-10T11:37:36.946Z,3.10
2019-01-10T11:40:07.559Z,2.30
2019-01-10T11:42:36.289Z,2.37
2019-01-10T11:45:06.989Z,2.70
2019-01-10T11:47:35.737Z,2.13
2019-01-10T11:50:05.846Z,2.13
2019-01-10T11:52:34.568Z,2.03
2019-01-10T11:55:03.434Z,2.43
2019-01-10T11:57:32.137Z,1.93
2019-01-10T12:00:00.893Z,1.90
2019-01-10T12:02:36.230Z,2.63
2019-01-10T12:05:00.185Z,2.40
2019-01-10T12:07:28.961Z,2.03
2019-01-10T12:09:57.681Z,1.80
2019-01-10T12:12:26.504Z,2.23
2019-01-10T12:14:55.250Z,1.80
2019-01-10T12:17:23.964Z,2.00
2019-01-10T12:19:52.752Z,2.20
2019-01-10T12:22:21.565Z,2.00
2019-01-10T12:24:50.357Z,1.40
2019-01-10T12:27:19.097Z,2.00
2019-01-10T12:29:47.983Z,2.47
2019-01-10T12:32:16.701Z,2.00
2019-01-10T12:34:45.409Z,2.43
2019-01-10T12:37:14.210Z,1.63
2019-01-10T12:39:42.935Z,2.07
2019-01-10T12:42:11.689Z,2.13
2019-01-10T12:44:40.621Z,2.43
2019-01-10T12:47:09.409Z,1.70
2019-01-10T12:49:38.307Z,1.83
2019-01-10T12:52:07.034Z,2.30
2019-01-10T12:54:35.906Z,1.50
2019-01-10T12:57:04.634Z,1.53
2019-01-10T12:59:33.385Z,1.63
2019-01-10T13:02:02.375Z,1.47
2019-01-10T13:04:31.062Z,2.20
2019-01-10T13:06:59.878Z,2.47
2019-01-10T13:09:28.682Z,2.60
2019-01-10T13:11:57.421Z,2.63
2019-01-10T13:14:26.317Z,3.30
2019-01-10T13:16:55.189Z,2.37
2019-01-10T13:19:23.990Z,2.57
2019-01-10T13:21:52.747Z,1.90
2019-01-10T13:24:21.467Z,1.50
2019-01-10T13:26:50.249Z,1.43
2019-01-10T13:29:19.045Z,1.23
2019-01-10T13:31:47.834Z,2.13
2019-01-10T13:34:16.581Z,1.40
2019-01-10T13:36:45.290Z,1.07
2019-01-10T13:39:14.012Z,0.93
2019-01-10T13:41:42.752Z,1.13
2019-01-10T13:44:11.601Z,1.50
2019-01-10T13:46:40.398Z,1.10
2019-01-10T13:49:09.221Z,1.43
2019-01-10T13:51:38.086Z,1.40
2019-01-10T13:54:07.053Z,1.67
2019-01-10T13:56:35.857Z,1.87
2019-01-10T13:59:04.761Z,1.80
2019-01-10T14:01:33.625Z,1.33
2019-01-10T14:04:02.417Z,1.60
2019-01-10T14:06:31.245Z,1.33
2019-01-10T14:08:59.929Z,1.30
2019-01-10T14:11:28.790Z,1.40
2019-01-10T14:13:57.572Z,1.70
2019-01-10T14:16:26.369Z,1.20
2019-01-10T14:18:55.177Z,1.43
2019-01-10T14:21:24.981Z,1.20
2019-01-10T14:23:53.691Z,0.73
2019-01-10T14:26:22.501Z,1.40
2019-01-10T14:28:51.317Z,0.90
2019-01-10T14:31:20.094Z,1.50
2019-01-10T14:33:48.901Z,0.87
2019-01-10T14:36:17.686Z,0.90
2019-01-10T14:38:46.479Z,0.77
2019-01-10T14:41:15.178Z,0.87
2019-01-10T14:43:43.925Z,0.77
2019-01-10T14:46:12.761Z,0.80
2019-01-10T14:48:41.618Z,0.80
2019-01-10T14:51:10.861Z,0.90
2019-01-10T14:53:39.637Z,0.80
2019-01-10T14:56:08.506Z,1.03
2019-01-10T14:58:37.331Z,0.97
2019-01-10T15:01:06.299Z,0.90
2019-01-10T15:03:35.013Z,1.03
2019-01-10T15:06:03.762Z,1.57
2019-01-10T15:08:32.613Z,0.80
2019-01-10T15:11:01.337Z,0.77
2019-01-10T15:13:30.076Z,1.00
2019-01-10T15:15:58.890Z,0.70
2019-01-10T15:18:46.878Z,0.80
2019-01-10T15:21:15.610Z,0.70
2019-01-10T15:23:44.405Z,1.20
2019-01-10T15:26:13.423Z,0.80
2019-01-10T15:28:42.816Z,1.00
2019-01-10T15:31:11.685Z,1.20
2019-01-10T15:33:40.446Z,1.13
2019-01-10T15:36:09.202Z,1.10
2019-01-10T15:38:38.052Z,1.40
2019-01-10T15:41:06.945Z,1.00
2019-01-10T15:43:35.739Z,1.23
2019-01-10T15:46:04.648Z,1.30
2019-01-10T15:48:33.417Z,0.97
2019-01-10T15:51:02.311Z,1.13
2019-01-10T15:53:31.222Z,1.80
2019-01-10T15:56:00.320Z,1.50
2019-01-10T15:58:29.178Z,1.90
2019-01-10T16:00:57.906Z,1.37
2019-01-10T16:03:27.525Z,1.70
2019-01-10T16:05:56.289Z,1.33
2019-01-10T16:08:25.078Z,1.00
2019-01-10T16:10:53.837Z,1.40
2019-01-10T16:13:22.564Z,1.40
2019-01-10T16:15:51.287Z,1.43
2019-01-10T16:18:20.013Z,2.20
2019-01-10T16:20:48.855Z,4.60
2019-01-10T16:23:17.839Z,4.77
2019-01-10T16:25:46.628Z,4.70
2019-01-10T16:28:15.417Z,4.30
2019-01-10T16:30:45.106Z,3.70
2019-01-10T16:33:13.949Z,3.67
2019-01-10T16:35:42.675Z,3.70
2019-01-10T16:38:11.521Z,3.33
2019-01-10T16:40:40.396Z,2.83
2019-01-10T16:43:11.971Z,2.70
2019-01-10T16:45:39.988Z,2.37
2019-01-10T16:48:08.814Z,2.10
2019-01-10T16:50:37.641Z,2.90
2019-01-10T16:53:06.445Z,2.83
2019-01-10T16:55:35.293Z,3.43
2019-01-10T16:58:04.748Z,1.87
2019-01-10T17:00:34.464Z,2.10
2019-01-10T17:03:03.520Z,3.80
2019-01-10T17:05:32.808Z,3.70
2019-01-10T17:08:01.880Z,3.67
2019-01-10T17:10:30.842Z,2.20
2019-01-10T17:12:59.682Z,1.77
2019-01-10T17:15:28.633Z,1.43
2019-01-10T17:17:57.460Z,1.10
2019-01-10T17:20:27.276Z,1.00
2019-01-10T17:22:56.164Z,1.10
2019-01-10T17:25:25.145Z,1.00
2019-01-10T17:27:54.009Z,1.47
2019-01-10T17:30:25.149Z,1.20
2019-01-10T17:32:54.092Z,1.03
2019-01-10T17:35:25.189Z,1.00
2019-01-10T17:37:54.077Z,1.30
2019-01-10T17:40:24.126Z,1.40
2019-01-10T17:42:53.637Z,1.30
2019-01-10T17:45:25.336Z,1.20
2019-01-10T17:47:54.225Z,1.87
2019-01-10T17:50:23.057Z,1.67
2019-01-10T17:52:51.929Z,1.40
2019-01-10T17:55:20.757Z,1.50
2019-01-10T17:57:49.529Z,6.43
2019-01-10T18:00:21.174Z,3.30
2019-01-10T18:02:50.152Z,2.33
2019-01-10T18:05:18.909Z,2.63
2019-01-10T18:07:47.730Z,3.00
2019-01-10T18:10:17.885Z,2.47
2019-01-10T18:12:46.692Z,1.97
2019-01-10T18:15:17.470Z,1.40
2019-01-10T18:17:50.260Z,1.30
2019-01-10T18:20:19.506Z,1.70
2019-01-10T18:22:48.345Z,1.63
2019-01-10T18:25:17.201Z,1.83
2019-01-10T18:27:46.025Z,1.40
2019-01-10T18:30:17.581Z,1.70
2019-01-10T18:32:46.394Z,1.37
2019-01-10T18:35:15.306Z,1.13
2019-01-10T18:37:49.326Z,1.63
2019-01-10T18:40:21.585Z,1.40
2019-01-10T18:42:50.297Z,1.47
2019-01-10T18:45:21.568Z,1.37
2019-01-10T18:47:56.732Z,1.80
2019-01-10T18:50:22.196Z,1.60
2019-01-10T18:52:51.042Z,1.60
2019-01-10T18:55:19.877Z,2.33
2019-01-10T18:57:48.791Z,1.57
2019-01-10T19:00:29.066Z,1.67
2019-01-10T19:02:59.148Z,1.00
2019-01-10T19:05:29.112Z,1.50
2019-01-10T19:08:01.182Z,1.20
2019-01-10T19:10:30.266Z,1.50
2019-01-10T19:12:59.166Z,1.30
2019-01-10T19:15:28.301Z,1.57
2019-01-10T19:18:03.143Z,1.63
2019-01-10T19:20:28.789Z,1.80
2019-01-10T19:23:01.607Z,2.30
2019-01-10T19:25:30.650Z,2.33
2019-01-10T19:27:59.437Z,2.10
2019-01-10T19:30:30.817Z,2.17
2019-01-10T19:33:01.407Z,1.50
2019-01-10T19:35:30.435Z,2.10
2019-01-10T19:37:59.185Z,2.17
2019-01-10T19:40:27.972Z,1.80
2019-01-10T19:42:56.774Z,1.67
2019-01-10T19:45:25.509Z,1.37
2019-01-10T19:47:55.861Z,2.13
2019-01-10T19:50:25.585Z,1.90
2019-01-10T19:52:54.576Z,2.33
2019-01-10T19:55:23.732Z,1.80
2019-01-10T19:57:52.777Z,2.60
2019-01-10T20:00:33.457Z,2.10
2019-01-10T20:03:02.155Z,2.20
2019-01-10T20:05:31.089Z,2.40
2019-01-10T20:07:59.901Z,2.40
2019-01-10T20:10:28.625Z,2.80
2019-01-10T20:12:57.365Z,2.60
2019-01-10T20:15:26.222Z,2.30
2019-01-10T20:17:55.585Z,2.97
2019-01-10T20:20:27.377Z,3.00
2019-01-10T20:22:57.792Z,3.10
2019-01-10T20:25:26.747Z,3.20
2019-01-10T20:27:55.633Z,3.13
2019-01-10T20:30:24.454Z,3.47
2019-01-10T20:32:53.269Z,3.47
2019-01-10T20:35:22.038Z,4.50
2019-01-10T20:37:50.768Z,4.13
2019-01-10T20:40:23.176Z,3.97
2019-01-10T20:42:51.939Z,3.97
2019-01-10T20:45:20.834Z,4.13
2019-01-10T20:47:49.676Z,4.50
2019-01-10T20:50:18.745Z,4.07
2019-01-10T20:52:47.541Z,3.40
2019-01-10T20:55:16.444Z,3.90
2019-01-10T20:57:45.233Z,5.17
2019-01-10T21:00:16.944Z,4.97
2019-01-10T21:02:45.705Z,4.10
2019-01-10T21:05:14.745Z,4.33
2019-01-10T21:07:45.313Z,4.20
2019-01-10T21:10:14.529Z,4.90
2019-01-10T21:12:43.329Z,4.63
2019-01-10T21:15:14.895Z,4.53
2019-01-10T21:17:43.849Z,5.43
2019-01-10T21:20:12.849Z,4.83
2019-01-10T21:22:41.740Z,4.97
2019-01-10T21:25:10.974Z,5.43
2019-01-10T21:27:40.181Z,5.73
2019-01-10T21:30:11.510Z,5.40
2019-01-10T21:32:40.959Z,5.93
2019-01-10T21:35:10.086Z,6.10
2019-01-10T21:37:40.769Z,5.97
2019-01-10T21:40:12.228Z,6.40
2019-01-10T21:42:41.121Z,6.33
2019-01-10T21:45:15.224Z,5.97
2019-01-10T21:47:44.181Z,6.53
2019-01-10T21:50:21.880Z,6.90
2019-01-10T21:52:51.065Z,6.50
2019-01-10T21:55:20.895Z,8.70
2019-01-10T21:57:49.990Z,6.03
2019-01-10T22:00:27.515Z,6.13
2019-01-10T22:02:57.285Z,6.53
2019-01-10T22:05:26.364Z,6.17
2019-01-10T22:07:55.234Z,7.60
2019-01-10T22:10:24.427Z,7.10
2019-01-10T22:12:53.362Z,6.83
2019-01-10T22:15:24.579Z,7.47
2019-01-10T22:17:53.401Z,6.97
2019-01-10T22:20:22.969Z,6.50
2019-01-10T22:22:53.146Z,6.37
2019-01-10T22:25:24.279Z,7.57
2019-01-10T22:27:53.117Z,7.80
2019-01-10T22:30:23.040Z,7.10
2019-01-10T22:32:51.954Z,7.23
2019-01-10T22:35:22.409Z,8.53
2019-01-10T22:37:52.044Z,7.83
2019-01-10T22:40:22.671Z,7.50
2019-01-10T22:42:51.705Z,7.90
2019-01-10T22:45:20.603Z,7.40
2019-01-10T22:47:51.786Z,7.53
2019-01-10T22:50:21.611Z,6.83
2019-01-10T22:52:58.306Z,7.50
2019-01-10T22:55:27.189Z,7.40
2019-01-10T22:57:56.742Z,7.90
2019-01-10T23:00:56.009Z,6.87
2019-01-10T23:03:27.646Z,8.57
2019-01-10T23:05:56.596Z,7.90
2019-01-10T23:08:25.549Z,8.93
2019-01-10T23:10:54.537Z,8.13
2019-01-10T23:13:23.625Z,8.63
2019-01-10T23:15:56.437Z,8.70
2019-01-10T23:18:25.187Z,12.07
2019-01-10T23:20:56.430Z,8.47
2019-01-10T23:23:25.343Z,10.27
2019-01-10T23:25:54.821Z,10.67
2019-01-10T23:28:24.133Z,9.77
2019-01-10T23:30:57.722Z,9.87
2019-01-10T23:33:26.625Z,10.67
2019-01-10T23:36:00.120Z,10.63
2019-01-10T23:38:29.022Z,10.30
2019-01-10T23:40:57.942Z,10.60
2019-01-10T23:43:26.801Z,12.57
2019-01-10T23:45:55.614Z,11.17
2019-01-10T23:48:24.395Z,10.37
2019-01-10T23:50:53.194Z,10.43
2019-01-10T23:53:21.987Z,9.93
2019-01-10T23:55:50.730Z,10.60
2019-01-10T23:58:19.545Z,9.63
